createdAt,value
2023-05-24T00:01:25.677Z,6.90
2023-05-24T00:05:31.062Z,6.90
2023-05-24T00:09:33.213Z,6.80
2023-05-24T00:13:35.060Z,6.70
2023-05-24T00:17:41.178Z,6.70
2023-05-24T00:21:43.269Z,6.60
2023-05-24T00:25:45.037Z,6.60
2023-05-24T00:29:46.832Z,6.50
2023-05-24T00:33:48.635Z,6.50
2023-05-24T00:37:50.713Z,6.40
2023-05-24T00:41:52.666Z,6.40
2023-05-24T00:46:15.304Z,6.40
2023-05-24T00:50:17.536Z,6.30
2023-05-24T00:54:19.346Z,6.20
2023-05-24T00:58:22.832Z,6.20
2023-05-24T01:02:25.577Z,6.10
2023-05-24T01:06:28.801Z,6.10
2023-05-24T01:10:54.669Z,6.00
2023-05-24T01:15:10.315Z,5.90
2023-05-24T01:19:54.175Z,5.90
2023-05-24T01:24:10.677Z,5.70
2023-05-24T01:28:13.052Z,5.70
2023-05-24T01:32:15.000Z,5.60
2023-05-24T01:36:16.809Z,5.60
2023-05-24T01:40:19.085Z,5.50
2023-05-24T01:44:36.450Z,5.50
2023-05-24T01:49:24.893Z,5.50
2023-05-24T01:53:32.786Z,5.30
2023-05-24T01:57:35.387Z,5.30
2023-05-24T02:01:37.390Z,5.30
2023-05-24T02:05:39.284Z,5.30
2023-05-24T02:09:41.128Z,5.30
2023-05-24T02:13:42.981Z,5.30
2023-05-24T02:17:45.982Z,5.20
2023-05-24T02:21:47.844Z,5.10
2023-05-24T02:25:49.654Z,5.10
2023-05-24T02:29:52.787Z,5.00
2023-05-24T02:33:58.397Z,5.10
2023-05-24T02:38:01.506Z,5.00
2023-05-24T02:42:05.740Z,5.00
2023-05-24T02:46:07.577Z,4.90
2023-05-24T02:50:10.528Z,4.80
2023-05-24T02:54:12.280Z,4.80
2023-05-24T02:58:14.072Z,4.70
2023-05-24T03:02:15.946Z,4.70
2023-05-24T03:06:17.826Z,4.70
2023-05-24T03:10:19.607Z,4.60
2023-05-24T03:14:23.889Z,4.60
2023-05-24T03:18:25.852Z,4.60
2023-05-24T03:22:27.639Z,4.60
2023-05-24T03:26:29.446Z,4.60
2023-05-24T03:30:31.312Z,4.60
2023-05-24T03:34:33.124Z,4.60
2023-05-24T03:38:34.956Z,4.50
2023-05-24T03:42:36.884Z,4.50
2023-05-24T03:46:38.874Z,4.30
2023-05-24T03:50:41.038Z,4.40
2023-05-24T03:54:43.143Z,4.50
2023-05-24T03:58:44.955Z,4.40
2023-05-24T04:02:46.885Z,4.50
2023-05-24T04:06:49.669Z,4.50
2023-05-24T04:10:51.449Z,4.50
2023-05-24T04:14:53.334Z,4.50
2023-05-24T04:18:56.329Z,4.70
2023-05-24T04:22:59.157Z,4.70
2023-05-24T04:27:01.090Z,4.80
2023-05-24T04:31:03.332Z,4.90
2023-05-24T04:35:05.553Z,5.20
2023-05-24T04:39:07.294Z,5.40
2023-05-24T04:43:10.619Z,5.60
2023-05-24T04:47:12.863Z,6.00
2023-05-24T04:51:14.643Z,6.30
2023-05-24T04:55:16.469Z,6.80
2023-05-24T04:59:18.245Z,6.90
2023-05-24T05:03:20.118Z,7.00
2023-05-24T05:07:22.611Z,6.90
2023-05-24T05:11:24.312Z,7.00
2023-05-24T05:15:26.120Z,7.10
2023-05-24T05:19:27.827Z,7.40
2023-05-24T05:23:30.355Z,7.60
2023-05-24T05:27:32.062Z,7.80
2023-05-24T05:31:33.814Z,8.00
2023-05-24T05:35:35.492Z,8.10
2023-05-24T05:39:37.361Z,8.30
2023-05-24T05:43:39.225Z,8.50
2023-05-24T05:47:41.152Z,8.60
2023-05-24T05:51:42.958Z,8.80
2023-05-24T05:55:44.678Z,8.90
2023-05-24T05:59:46.387Z,9.10
2023-05-24T06:03:48.310Z,9.10
2023-05-24T06:07:50.357Z,9.20
2023-05-24T06:11:52.174Z,9.40
2023-05-24T06:15:59.062Z,9.70
2023-05-24T06:20:01.277Z,9.80
2023-05-24T06:24:04.100Z,10.10
2023-05-24T06:28:05.924Z,10.30
2023-05-24T06:32:07.807Z,10.70
2023-05-24T06:36:09.749Z,11.00
2023-05-24T06:40:12.882Z,11.30
2023-05-24T06:44:14.790Z,12.00
2023-05-24T06:48:17.002Z,12.10
2023-05-24T06:52:18.949Z,12.60
2023-05-24T06:56:21.418Z,12.70
2023-05-24T07:00:23.375Z,12.60
2023-05-24T07:04:25.428Z,12.50
2023-05-24T07:08:27.819Z,12.50
2023-05-24T07:12:29.622Z,11.90
2023-05-24T07:16:31.890Z,11.90
2023-05-24T07:20:33.791Z,12.30
2023-05-24T07:24:35.844Z,12.40
2023-05-24T07:28:38.814Z,12.40
2023-05-24T07:32:40.775Z,12.30
2023-05-24T07:36:42.653Z,12.30
2023-05-24T07:40:44.738Z,12.30
2023-05-24T07:44:46.796Z,12.40
2023-05-24T07:48:48.866Z,12.30
2023-05-24T07:52:51.310Z,12.30
2023-05-24T07:56:53.202Z,12.60
2023-05-24T08:00:55.129Z,12.90
2023-05-24T08:04:56.926Z,13.00
2023-05-24T08:08:58.993Z,12.80
2023-05-24T08:13:01.055Z,12.90
2023-05-24T08:17:02.987Z,13.50
2023-05-24T08:21:04.894Z,13.50
2023-05-24T08:25:07.042Z,14.00
2023-05-24T08:29:09.152Z,14.20
2023-05-24T08:33:11.536Z,14.10
2023-05-24T08:37:16.298Z,13.70
2023-05-24T08:41:18.223Z,13.70
2023-05-24T08:45:21.788Z,13.40
2023-05-24T08:49:24.610Z,13.40
2023-05-24T08:53:27.439Z,13.10
2023-05-24T08:57:31.168Z,13.00
2023-05-24T09:01:34.762Z,13.10
2023-05-24T09:05:41.505Z,13.20
2023-05-24T09:09:47.902Z,13.80
2023-05-24T09:13:49.815Z,14.20
2023-05-24T09:17:51.693Z,14.60
2023-05-24T09:21:54.684Z,15.10
2023-05-24T09:25:56.987Z,16.60
2023-05-24T09:29:58.795Z,17.10
2023-05-24T09:34:01.182Z,18.10
2023-05-24T09:38:03.907Z,17.30
2023-05-24T09:42:06.199Z,16.30
2023-05-24T09:46:08.010Z,15.60
2023-05-24T09:50:14.495Z,15.60
2023-05-24T09:54:17.413Z,15.80
2023-05-24T09:58:20.135Z,16.60
2023-05-24T10:02:23.824Z,16.50
2023-05-24T10:06:25.716Z,15.60
2023-05-24T10:10:29.394Z,15.20
2023-05-24T10:14:36.180Z,15.10
2023-05-24T10:18:38.593Z,14.70
2023-05-24T10:22:47.216Z,14.90
2023-05-24T10:26:50.606Z,15.50
2023-05-24T10:31:17.065Z,15.50
2023-05-24T10:35:20.240Z,15.50
2023-05-24T10:39:22.916Z,15.60
2023-05-24T10:43:25.827Z,16.30
2023-05-24T10:47:30.344Z,16.20
2023-05-24T10:51:38.603Z,16.30
2023-05-24T10:55:57.300Z,16.20
2023-05-24T11:00:48.263Z,15.40
2023-05-24T11:04:49.010Z,15.00
2023-05-24T11:08:51.107Z,15.00
2023-05-24T11:13:02.624Z,15.40
2023-05-24T11:17:05.600Z,15.50
2023-05-24T11:21:07.916Z,15.20
2023-05-24T11:25:10.477Z,15.10
2023-05-24T11:29:17.912Z,14.70
2023-05-24T11:33:23.361Z,14.40
2023-05-24T11:37:38.389Z,14.00
2023-05-24T11:41:47.867Z,13.90
2023-05-24T11:45:51.985Z,13.90
2023-05-24T11:49:53.755Z,13.80
2023-05-24T11:54:00.131Z,13.80
2023-05-24T11:58:06.039Z,14.30
2023-05-24T12:02:08.859Z,14.40
2023-05-24T12:06:10.970Z,14.50
2023-05-24T12:10:13.715Z,14.50
2023-05-24T12:14:17.986Z,14.90
2023-05-24T12:18:23.836Z,15.50
2023-05-24T12:22:29.781Z,15.00
2023-05-24T12:26:31.532Z,15.20
2023-05-24T12:30:33.320Z,15.80
2023-05-24T12:34:35.054Z,16.70
2023-05-24T12:38:37.167Z,17.10
2023-05-24T12:42:39.056Z,17.00
2023-05-24T12:46:40.829Z,16.70
2023-05-24T12:50:42.719Z,16.60
2023-05-24T12:54:44.650Z,16.40
2023-05-24T12:58:47.344Z,16.10
2023-05-24T13:02:49.888Z,15.80
2023-05-24T13:06:51.669Z,15.80
2023-05-24T13:10:53.809Z,16.20
2023-05-24T13:14:55.670Z,17.00
2023-05-24T13:18:57.531Z,17.00
2023-05-24T13:22:59.250Z,16.70
2023-05-24T13:27:01.458Z,16.30
2023-05-24T13:31:03.703Z,16.30
2023-05-24T13:35:08.305Z,16.40
2023-05-24T13:39:15.425Z,16.30
2023-05-24T13:43:18.198Z,16.00
2023-05-24T13:47:41.486Z,15.30
2023-05-24T13:51:42.718Z,15.20
2023-05-24T13:55:44.515Z,15.30
2023-05-24T13:59:46.292Z,15.50
2023-05-24T14:03:48.120Z,15.30
2023-05-24T14:07:50.249Z,14.90
2023-05-24T14:11:53.013Z,15.20
2023-05-24T14:15:54.847Z,15.50
2023-05-24T14:19:56.803Z,16.00
2023-05-24T14:23:58.525Z,16.40
2023-05-24T14:28:00.361Z,16.70
2023-05-24T14:32:02.216Z,16.30
2023-05-24T14:36:04.207Z,15.90
2023-05-24T14:40:06.879Z,15.60
2023-05-24T14:44:09.045Z,15.60
2023-05-24T14:48:11.852Z,15.30
2023-05-24T14:52:13.965Z,15.30
2023-05-24T14:56:15.978Z,14.90
2023-05-24T15:00:21.505Z,14.80
2023-05-24T15:04:24.495Z,15.00
2023-05-24T15:08:26.343Z,15.10
2023-05-24T15:12:28.114Z,15.20
2023-05-24T15:16:29.956Z,15.20
2023-05-24T15:20:35.732Z,14.80
2023-05-24T15:24:38.248Z,14.60
2023-05-24T15:28:40.092Z,14.60
2023-05-24T15:32:41.924Z,14.50
2023-05-24T15:36:45.707Z,14.50
2023-05-24T15:40:47.529Z,14.70
2023-05-24T15:44:49.308Z,14.70
2023-05-24T15:48:51.077Z,14.90
2023-05-24T15:52:52.821Z,15.00
2023-05-24T15:56:54.559Z,14.90
2023-05-24T16:00:56.313Z,14.70
2023-05-24T16:04:58.059Z,14.80
2023-05-24T16:08:59.787Z,14.80
2023-05-24T16:13:01.545Z,14.60
2023-05-24T16:17:06.325Z,14.60
2023-05-24T16:21:08.068Z,14.70
2023-05-24T16:25:10.322Z,14.70
2023-05-24T16:29:14.813Z,14.60
2023-05-24T16:33:16.551Z,14.60
2023-05-24T16:37:18.315Z,14.70
2023-05-24T16:41:20.152Z,14.90
2023-05-24T16:45:21.921Z,14.70
2023-05-24T16:49:24.008Z,14.60
2023-05-24T16:53:27.068Z,14.50
2023-05-24T16:57:29.158Z,14.40
2023-05-24T17:01:31.396Z,14.30
2023-05-24T17:05:33.153Z,14.20
2023-05-24T17:09:34.916Z,14.30
2023-05-24T17:13:36.670Z,14.20
2023-05-24T17:17:38.476Z,14.30
2023-05-24T17:21:40.316Z,14.20
2023-05-24T17:25:41.991Z,14.20
2023-05-24T17:29:44.799Z,14.20
2023-05-24T17:33:46.603Z,14.10
2023-05-24T17:37:48.318Z,14.10
2023-05-24T17:41:50.311Z,14.00
2023-05-24T17:45:52.546Z,14.00
2023-05-24T17:49:54.326Z,14.00
2023-05-24T17:53:56.189Z,13.80
2023-05-24T17:57:57.934Z,13.70
2023-05-24T18:01:59.677Z,13.60
2023-05-24T18:06:03.741Z,13.60
2023-05-24T18:10:06.637Z,13.60
2023-05-24T18:14:08.463Z,13.60
2023-05-24T18:18:10.500Z,13.60
2023-05-24T18:22:12.350Z,13.60
2023-05-24T18:26:14.126Z,13.60
2023-05-24T18:30:16.620Z,13.70
2023-05-24T18:34:18.344Z,13.70
2023-05-24T18:38:20.069Z,13.60
2023-05-24T18:42:21.821Z,13.60
2023-05-24T18:46:25.811Z,13.60
2023-05-24T18:50:27.578Z,13.60
2023-05-24T18:54:30.250Z,13.50
2023-05-24T18:58:32.140Z,13.40
2023-05-24T19:02:38.896Z,13.30
2023-05-24T19:06:40.948Z,13.10
2023-05-24T19:10:42.626Z,13.00
2023-05-24T19:14:44.460Z,12.90
2023-05-24T19:18:46.352Z,12.70
2023-05-24T19:22:48.097Z,12.60
2023-05-24T19:26:52.949Z,12.40
2023-05-24T19:30:54.758Z,12.30
2023-05-24T19:34:56.791Z,12.10
2023-05-24T19:38:59.116Z,12.00
2023-05-24T19:43:01.230Z,11.80
2023-05-24T19:47:03.199Z,11.70
2023-05-24T19:51:05.036Z,11.70
2023-05-24T19:55:08.159Z,11.60
2023-05-24T19:59:09.963Z,11.40
2023-05-24T20:03:11.917Z,11.30
2023-05-24T20:07:14.633Z,11.10
2023-05-24T20:11:16.400Z,11.10
2023-05-24T20:15:18.239Z,10.90
2023-05-24T20:19:21.438Z,10.80
2023-05-24T20:23:27.312Z,10.60
2023-05-24T20:27:29.096Z,10.40
2023-05-24T20:31:30.934Z,10.30
2023-05-24T20:35:32.684Z,10.20
2023-05-24T20:39:34.523Z,10.10
2023-05-24T20:43:36.270Z,10.00
2023-05-24T20:47:38.028Z,9.90
2023-05-24T20:51:39.771Z,9.80
2023-05-24T20:55:41.837Z,9.70
2023-05-24T20:59:43.686Z,9.60
2023-05-24T21:03:45.630Z,9.50
2023-05-24T21:07:47.497Z,9.60
2023-05-24T21:11:49.229Z,9.40
2023-05-24T21:15:51.417Z,9.30
2023-05-24T21:19:53.216Z,9.20
2023-05-24T21:23:55.562Z,9.20
2023-05-24T21:27:57.331Z,9.10
2023-05-24T21:31:59.092Z,9.00
2023-05-24T21:36:02.996Z,9.00
2023-05-24T21:40:06.214Z,8.90
2023-05-24T21:44:09.084Z,8.80
2023-05-24T21:48:10.935Z,8.80
2023-05-24T21:52:12.805Z,8.70
2023-05-24T21:56:14.629Z,8.70
2023-05-24T22:00:16.922Z,8.70
2023-05-24T22:04:18.830Z,8.60
2023-05-24T22:08:20.667Z,8.60
2023-05-24T22:12:22.499Z,8.40
2023-05-24T22:16:24.402Z,8.30
2023-05-24T22:20:27.717Z,8.30
2023-05-24T22:24:29.551Z,8.20
2023-05-24T22:29:00.767Z,8.20
2023-05-24T22:33:02.898Z,8.10
2023-05-24T22:37:05.076Z,8.00
2023-05-24T22:41:07.013Z,8.00
2023-05-24T22:45:09.662Z,7.90
2023-05-24T22:49:13.388Z,7.90
2023-05-24T22:53:17.141Z,7.80
2023-05-24T22:57:21.617Z,7.80
2023-05-24T23:01:23.608Z,7.80
2023-05-24T23:05:25.420Z,7.80
2023-05-24T23:09:34.496Z,7.70
2023-05-24T23:13:37.764Z,7.70
2023-05-24T23:17:39.641Z,7.60
2023-05-24T23:21:42.127Z,7.60
2023-05-24T23:25:44.067Z,7.60
2023-05-24T23:29:46.192Z,7.50
2023-05-24T23:33:48.007Z,7.60
2023-05-24T23:37:49.914Z,7.60
2023-05-24T23:41:51.761Z,7.70
2023-05-24T23:45:53.611Z,7.60
2023-05-24T23:49:55.562Z,7.60
2023-05-24T23:53:57.318Z,7.60
2023-05-24T23:58:00.293Z,7.50
